Os — LHFA — position and weather

sailwx.info

Track history (hours):
 
Tides and Currents Weather Stations Pressure Air Temp Water Temp Dewpoint Dewpoint Depression Visibility Wind Speed Wind Dir Waves Ship Positions

Os

Last reported at 2016-Jun-15 19:33 UTC. Time now 2016-Jul-28 02:59 UTC.
Position N 62°38' E 006°17'.
Warning: this ship's position is 42 days out of date.

Length 64 m; draft 3.3 m.

Type: Passenger vessel. MMSI: 257066700.

Date/timePositionNaut miles runAvg speedWind from/ knotsBaromVisibWave heightAir tempDewpointWater temp
2016-Jun-15 19:33N 62°38' E 006°17'0 0.2
2016-Jun-15 18:33N 62°37' E 006°17'1 1.1
2016-Jun-15 17:33N 62°37' E 006°15'0 0.4
2016-Jun-15 16:33N 62°37' E 006°14'0 0.2
2016-Jun-15 15:34N 62°37' E 006°14'0 0.2
2016-Jun-15 14:34N 62°37' E 006°13'0 0.4
2016-Jun-15 13:33N 62°37' E 006°14'0 0.2
2016-Jun-15 12:33N 62°37' E 006°14'0 0.2
2016-Jun-15 11:34N 62°37' E 006°13'2 2.0
2016-Jun-15 10:33N 62°35' E 006°15'1 0.9
2016-Jun-15 09:33N 62°34' E 006°14'3 2.7
2016-Jun-15 08:34N 62°37' E 006°13'0 0.0
2016-Jun-15 07:33N 62°37' E 006°13'2 1.9
2016-Jun-15 06:33N 62°36' E 006°17'0 0.2
2016-Jun-15 05:33N 62°36' E 006°17'2 1.8
2016-Jun-15 04:33N 62°37' E 006°14'2 1.7
2016-Jun-15 03:33N 62°38' E 006°17'0 0.4
2016-Jun-15 02:33N 62°38' E 006°17'0 0.0
2016-Jun-15 01:33N 62°38' E 006°17'  
2016-Jun-10 09:33N 62°36' E 006°17'2 2.1
2016-Jun-10 08:33N 62°37' E 006°14'0 0.0
2016-Jun-10 07:33N 62°37' E 006°14'2 1.5
2016-Jun-10 06:33N 62°36' E 006°17'0 0.3
2016-Jun-10 05:33N 62°36' E 006°16'2 1.8
2016-Jun-10 04:33N 62°37' E 006°13'2 1.8
2016-Jun-10 03:33N 62°38' E 006°17'0 0.3
2016-Jun-10 02:33N 62°38' E 006°17'0 0.0
2016-Jun-10 01:33N 62°38' E 006°17'0 0.0
2016-Jun-10 00:33N 62°38' E 006°17'0 0.0
2016-Jun-09 23:33N 62°38' E 006°17'0 0.0
2016-Jun-09 22:34N 62°38' E 006°17'2 1.9
2016-Jun-09 21:33N 62°37' E 006°13'2 1.8
2016-Jun-09 20:33N 62°38' E 006°17'0 0.1
2016-Jun-09 19:33N 62°38' E 006°17'0 0.2
2016-Jun-09 18:34N 62°38' E 006°17'2 1.8
2016-Jun-09 17:34N 62°37' E 006°13'0 0.1
2016-Jun-09 16:33N 62°37' E 006°14'0 0.3
2016-Jun-09 15:33N 62°37' E 006°14'0 0.2
2016-Jun-09 14:33N 62°37' E 006°14'0 0.2
2016-Jun-09 13:33N 62°37' E 006°14'0 0.0
2016-Jun-09 12:32N 62°37' E 006°14'0 0.1
2016-Jun-09 11:32N 62°37' E 006°14'  
Track history (hours):
 
Tides and Currents Weather Stations Pressure Air Temp Water Temp Dewpoint Dewpoint Depression Visibility Wind Speed Wind Dir Waves Ship Positions

Os

Last reported at 2016-Jun-15 19:33 UTC. Time now 2016-Jul-28 02:59 UTC.
Position N 62°38' E 006°17'.
Warning: this ship's position is 42 days out of date.

Length 64 m; draft 3.3 m.

Type: Passenger vessel. MMSI: 257066700.

Date/timePositionNaut miles runAvg speedWind from/ knotsBaromVisibWave heightAir tempDewpointWater temp
2016-Jun-15 19:33N 62°38' E 006°17'0 0.2
2016-Jun-15 18:33N 62°37' E 006°17'1 1.1
2016-Jun-15 17:33N 62°37' E 006°15'0 0.4
2016-Jun-15 16:33N 62°37' E 006°14'0 0.2
2016-Jun-15 15:34N 62°37' E 006°14'0 0.2
2016-Jun-15 14:34N 62°37' E 006°13'0 0.4
2016-Jun-15 13:33N 62°37' E 006°14'0 0.2
2016-Jun-15 12:33N 62°37' E 006°14'0 0.2
2016-Jun-15 11:34N 62°37' E 006°13'2 2.0
2016-Jun-15 10:33N 62°35' E 006°15'1 0.9
2016-Jun-15 09:33N 62°34' E 006°14'3 2.7
2016-Jun-15 08:34N 62°37' E 006°13'0 0.0
2016-Jun-15 07:33N 62°37' E 006°13'2 1.9
2016-Jun-15 06:33N 62°36' E 006°17'0 0.2
2016-Jun-15 05:33N 62°36' E 006°17'2 1.8
2016-Jun-15 04:33N 62°37' E 006°14'2 1.7
2016-Jun-15 03:33N 62°38' E 006°17'0 0.4
2016-Jun-15 02:33N 62°38' E 006°17'0 0.0
2016-Jun-15 01:33N 62°38' E 006°17'  
2016-Jun-10 09:33N 62°36' E 006°17'2 2.1
2016-Jun-10 08:33N 62°37' E 006°14'0 0.0
2016-Jun-10 07:33N 62°37' E 006°14'2 1.5
2016-Jun-10 06:33N 62°36' E 006°17'0 0.3
2016-Jun-10 05:33N 62°36' E 006°16'2 1.8
2016-Jun-10 04:33N 62°37' E 006°13'2 1.8
2016-Jun-10 03:33N 62°38' E 006°17'0 0.3
2016-Jun-10 02:33N 62°38' E 006°17'0 0.0
2016-Jun-10 01:33N 62°38' E 006°17'0 0.0
2016-Jun-10 00:33N 62°38' E 006°17'0 0.0
2016-Jun-09 23:33N 62°38' E 006°17'0 0.0
2016-Jun-09 22:34N 62°38' E 006°17'2 1.9
2016-Jun-09 21:33N 62°37' E 006°13'2 1.8
2016-Jun-09 20:33N 62°38' E 006°17'0 0.1
2016-Jun-09 19:33N 62°38' E 006°17'0 0.2
2016-Jun-09 18:34N 62°38' E 006°17'2 1.8
2016-Jun-09 17:34N 62°37' E 006°13'0 0.1
2016-Jun-09 16:33N 62°37' E 006°14'0 0.3
2016-Jun-09 15:33N 62°37' E 006°14'0 0.2
2016-Jun-09 14:33N 62°37' E 006°14'0 0.2
2016-Jun-09 13:33N 62°37' E 006°14'0 0.0
2016-Jun-09 12:32N 62°37' E 006°14'0 0.1
2016-Jun-09 11:32N 62°37' E 006°14'  

Dump ship's entire track history